sensor_id;sensor_type;location;lat;lon;timestamp;temperature;humidity
52787;DHT22;38661;53.152;5.846;2023-09-19T00:00:40;14.50;87.20
52787;DHT22;38661;53.152;5.846;2023-09-19T00:03:07;14.50;87.30
52787;DHT22;38661;53.152;5.846;2023-09-19T00:05:37;14.50;87.30
52787;DHT22;38661;53.152;5.846;2023-09-19T00:08:04;14.50;87.40
52787;DHT22;38661;53.152;5.846;2023-09-19T00:10:31;14.50;87.50
52787;DHT22;38661;53.152;5.846;2023-09-19T00:12:57;14.50;87.60
52787;DHT22;38661;53.152;5.846;2023-09-19T00:15:26;14.50;87.60
52787;DHT22;38661;53.152;5.846;2023-09-19T00:17:57;14.50;88.00
52787;DHT22;38661;53.152;5.846;2023-09-19T00:20:23;14.50;88.20
52787;DHT22;38661;53.152;5.846;2023-09-19T00:22:50;14.50;88.30
52787;DHT22;38661;53.152;5.846;2023-09-19T00:25:17;14.50;87.80
52787;DHT22;38661;53.152;5.846;2023-09-19T00:27:43;14.60;87.30
52787;DHT22;38661;53.152;5.846;2023-09-19T00:30:12;14.60;86.20
52787;DHT22;38661;53.152;5.846;2023-09-19T00:32:50;14.60;84.50
52787;DHT22;38661;53.152;5.846;2023-09-19T00:35:20;14.60;84.60
52787;DHT22;38661;53.152;5.846;2023-09-19T00:37:49;14.60;83.90
52787;DHT22;38661;53.152;5.846;2023-09-19T00:40:15;14.60;83.00
52787;DHT22;38661;53.152;5.846;2023-09-19T00:42:45;14.50;82.50
52787;DHT22;38661;53.152;5.846;2023-09-19T00:45:13;14.50;82.40
52787;DHT22;38661;53.152;5.846;2023-09-19T00:47:48;14.40;82.40
52787;DHT22;38661;53.152;5.846;2023-09-19T00:50:15;14.40;82.60
52787;DHT22;38661;53.152;5.846;2023-09-19T00:52:43;14.40;82.10
52787;DHT22;38661;53.152;5.846;2023-09-19T00:55:10;14.40;81.10
52787;DHT22;38661;53.152;5.846;2023-09-19T00:57:37;14.20;81.20
52787;DHT22;38661;53.152;5.846;2023-09-19T01:00:05;14.20;81.60
52787;DHT22;38661;53.152;5.846;2023-09-19T01:02:33;14.20;80.70
52787;DHT22;38661;53.152;5.846;2023-09-19T01:04:59;14.10;80.90
52787;DHT22;38661;53.152;5.846;2023-09-19T01:07:28;14.00;81.10
52787;DHT22;38661;53.152;5.846;2023-09-19T01:10:03;14.00;81.40
52787;DHT22;38661;53.152;5.846;2023-09-19T01:13:05;13.90;82.00
52787;DHT22;38661;53.152;5.846;2023-09-19T01:21:11;13.70;83.00
52787;DHT22;38661;53.152;5.846;2023-09-19T01:29:43;13.70;83.70
52787;DHT22;38661;53.152;5.846;2023-09-19T01:32:11;13.70;84.20
52787;DHT22;38661;53.152;5.846;2023-09-19T01:34:50;13.80;83.80
52787;DHT22;38661;53.152;5.846;2023-09-19T01:37:17;13.90;84.20
52787;DHT22;38661;53.152;5.846;2023-09-19T01:39:51;13.90;84.30
52787;DHT22;38661;53.152;5.846;2023-09-19T01:47:52;13.90;84.50
52787;DHT22;38661;53.152;5.846;2023-09-19T01:51:05;13.90;84.00
52787;DHT22;38661;53.152;5.846;2023-09-19T01:53:56;14.00;83.90
52787;DHT22;38661;53.152;5.846;2023-09-19T01:56:47;14.00;84.00
52787;DHT22;38661;53.152;5.846;2023-09-19T01:59:17;14.00;84.00
52787;DHT22;38661;53.152;5.846;2023-09-19T02:01:48;13.90;84.20
52787;DHT22;38661;53.152;5.846;2023-09-19T02:04:15;13.90;84.20
52787;DHT22;38661;53.152;5.846;2023-09-19T02:06:41;14.00;83.80
52787;DHT22;38661;53.152;5.846;2023-09-19T02:09:07;14.00;83.70
52787;DHT22;38661;53.152;5.846;2023-09-19T02:11:34;14.00;83.80
52787;DHT22;38661;53.152;5.846;2023-09-19T02:14:01;14.00;83.80
52787;DHT22;38661;53.152;5.846;2023-09-19T02:16:28;14.00;83.80
52787;DHT22;38661;53.152;5.846;2023-09-19T02:18:54;14.00;83.90
52787;DHT22;38661;53.152;5.846;2023-09-19T02:21:20;14.00;83.90
52787;DHT22;38661;53.152;5.846;2023-09-19T02:23:47;14.00;83.80
52787;DHT22;38661;53.152;5.846;2023-09-19T02:26:13;14.00;83.60
52787;DHT22;38661;53.152;5.846;2023-09-19T02:28:39;14.00;83.30
52787;DHT22;38661;53.152;5.846;2023-09-19T02:31:05;14.00;83.40
52787;DHT22;38661;53.152;5.846;2023-09-19T02:33:31;14.20;82.90
52787;DHT22;38661;53.152;5.846;2023-09-19T02:35:58;14.10;82.90
52787;DHT22;38661;53.152;5.846;2023-09-19T02:38:25;14.10;83.20
52787;DHT22;38661;53.152;5.846;2023-09-19T02:40:54;14.20;82.60
52787;DHT22;38661;53.152;5.846;2023-09-19T02:43:21;14.30;82.40
52787;DHT22;38661;53.152;5.846;2023-09-19T02:45:47;14.20;82.40
52787;DHT22;38661;53.152;5.846;2023-09-19T02:48:16;14.30;82.60
52787;DHT22;38661;53.152;5.846;2023-09-19T02:50:42;14.30;82.30
52787;DHT22;38661;53.152;5.846;2023-09-19T02:53:09;14.30;82.70
52787;DHT22;38661;53.152;5.846;2023-09-19T02:55:38;14.40;82.90
52787;DHT22;38661;53.152;5.846;2023-09-19T02:58:06;14.30;83.00
52787;DHT22;38661;53.152;5.846;2023-09-19T03:00:33;14.40;82.80
52787;DHT22;38661;53.152;5.846;2023-09-19T03:03:00;14.40;83.00
52787;DHT22;38661;53.152;5.846;2023-09-19T03:05:27;14.30;83.00
52787;DHT22;38661;53.152;5.846;2023-09-19T03:07:57;14.30;82.70
52787;DHT22;38661;53.152;5.846;2023-09-19T03:10:26;14.40;82.40
52787;DHT22;38661;53.152;5.846;2023-09-19T03:12:52;14.30;82.30
52787;DHT22;38661;53.152;5.846;2023-09-19T03:15:17;14.20;82.50
52787;DHT22;38661;53.152;5.846;2023-09-19T03:17:45;14.10;82.50
52787;DHT22;38661;53.152;5.846;2023-09-19T03:20:11;14.10;82.50
52787;DHT22;38661;53.152;5.846;2023-09-19T03:22:39;14.10;82.50
52787;DHT22;38661;53.152;5.846;2023-09-19T03:25:06;14.10;82.10
52787;DHT22;38661;53.152;5.846;2023-09-19T03:27:36;14.00;81.90
52787;DHT22;38661;53.152;5.846;2023-09-19T03:30:02;14.00;81.90
52787;DHT22;38661;53.152;5.846;2023-09-19T03:32:31;14.00;81.40
52787;DHT22;38661;53.152;5.846;2023-09-19T03:34:56;14.00;81.70
52787;DHT22;38661;53.152;5.846;2023-09-19T03:37:22;14.00;81.60
52787;DHT22;38661;53.152;5.846;2023-09-19T03:39:48;14.00;81.50
52787;DHT22;38661;53.152;5.846;2023-09-19T03:42:14;14.00;81.80
52787;DHT22;38661;53.152;5.846;2023-09-19T03:44:39;14.00;82.00
52787;DHT22;38661;53.152;5.846;2023-09-19T03:47:05;14.00;82.30
52787;DHT22;38661;53.152;5.846;2023-09-19T03:49:32;14.10;82.40
52787;DHT22;38661;53.152;5.846;2023-09-19T03:51:59;14.00;82.80
52787;DHT22;38661;53.152;5.846;2023-09-19T03:54:25;14.00;83.50
52787;DHT22;38661;53.152;5.846;2023-09-19T03:56:50;14.00;83.60
52787;DHT22;38661;53.152;5.846;2023-09-19T03:59:16;14.00;83.70
52787;DHT22;38661;53.152;5.846;2023-09-19T04:01:44;14.00;83.70
52787;DHT22;38661;53.152;5.846;2023-09-19T04:04:09;14.00;84.00
52787;DHT22;38661;53.152;5.846;2023-09-19T04:06:35;14.00;84.00
52787;DHT22;38661;53.152;5.846;2023-09-19T04:09:04;14.00;84.20
52787;DHT22;38661;53.152;5.846;2023-09-19T04:11:32;14.00;84.50
52787;DHT22;38661;53.152;5.846;2023-09-19T04:13:58;14.00;84.50
52787;DHT22;38661;53.152;5.846;2023-09-19T04:16:24;14.10;84.70
52787;DHT22;38661;53.152;5.846;2023-09-19T04:18:50;14.00;85.10
52787;DHT22;38661;53.152;5.846;2023-09-19T04:21:16;14.00;85.30
52787;DHT22;38661;53.152;5.846;2023-09-19T04:23:42;14.00;85.00
52787;DHT22;38661;53.152;5.846;2023-09-19T04:26:08;14.10;84.60
52787;DHT22;38661;53.152;5.846;2023-09-19T04:28:34;14.10;84.60
52787;DHT22;38661;53.152;5.846;2023-09-19T04:31:00;14.20;84.50
52787;DHT22;38661;53.152;5.846;2023-09-19T04:33:26;14.30;84.30
52787;DHT22;38661;53.152;5.846;2023-09-19T04:35:55;14.20;84.20
52787;DHT22;38661;53.152;5.846;2023-09-19T04:38:21;14.30;83.70
52787;DHT22;38661;53.152;5.846;2023-09-19T04:40:47;14.30;83.80
52787;DHT22;38661;53.152;5.846;2023-09-19T04:43:16;14.30;83.40
52787;DHT22;38661;53.152;5.846;2023-09-19T04:45:42;14.40;83.10
52787;DHT22;38661;53.152;5.846;2023-09-19T04:48:08;14.40;82.80
52787;DHT22;38661;53.152;5.846;2023-09-19T04:50:34;14.50;82.50
52787;DHT22;38661;53.152;5.846;2023-09-19T04:53:00;14.40;82.10
52787;DHT22;38661;53.152;5.846;2023-09-19T04:55:26;14.50;80.70
52787;DHT22;38661;53.152;5.846;2023-09-19T04:57:53;14.50;80.60
52787;DHT22;38661;53.152;5.846;2023-09-19T05:00:20;14.50;79.50
52787;DHT22;38661;53.152;5.846;2023-09-19T05:02:56;14.60;79.60
52787;DHT22;38661;53.152;5.846;2023-09-19T05:05:25;14.60;79.20
52787;DHT22;38661;53.152;5.846;2023-09-19T05:07:51;14.60;78.90
52787;DHT22;38661;53.152;5.846;2023-09-19T05:10:19;14.60;79.20
52787;DHT22;38661;53.152;5.846;2023-09-19T05:12:45;14.60;79.30
52787;DHT22;38661;53.152;5.846;2023-09-19T05:15:13;14.60;79.30
52787;DHT22;38661;53.152;5.846;2023-09-19T05:17:49;14.50;79.60
52787;DHT22;38661;53.152;5.846;2023-09-19T05:20:20;14.60;79.70
52787;DHT22;38661;53.152;5.846;2023-09-19T05:23:02;14.60;79.90
52787;DHT22;38661;53.152;5.846;2023-09-19T05:25:32;14.60;80.00
52787;DHT22;38661;53.152;5.846;2023-09-19T05:28:01;14.60;80.20
52787;DHT22;38661;53.152;5.846;2023-09-19T05:30:29;14.60;80.10
52787;DHT22;38661;53.152;5.846;2023-09-19T05:32:55;14.70;80.30
52787;DHT22;38661;53.152;5.846;2023-09-19T05:35:22;14.70;80.00
52787;DHT22;38661;53.152;5.846;2023-09-19T05:37:49;14.70;80.40
52787;DHT22;38661;53.152;5.846;2023-09-19T05:40:17;14.60;80.80
52787;DHT22;38661;53.152;5.846;2023-09-19T05:42:43;14.70;80.80
52787;DHT22;38661;53.152;5.846;2023-09-19T05:45:10;14.60;81.30
52787;DHT22;38661;53.152;5.846;2023-09-19T05:47:41;14.60;81.30
52787;DHT22;38661;53.152;5.846;2023-09-19T05:50:09;14.60;81.50
52787;DHT22;38661;53.152;5.846;2023-09-19T05:52:41;14.60;81.50
52787;DHT22;38661;53.152;5.846;2023-09-19T05:55:08;14.70;81.50
52787;DHT22;38661;53.152;5.846;2023-09-19T05:57:34;14.70;81.40
52787;DHT22;38661;53.152;5.846;2023-09-19T06:00:00;14.70;81.30
52787;DHT22;38661;53.152;5.846;2023-09-19T06:02:26;14.80;81.10
52787;DHT22;38661;53.152;5.846;2023-09-19T06:04:54;14.70;81.10
52787;DHT22;38661;53.152;5.846;2023-09-19T06:07:22;14.80;81.10
52787;DHT22;38661;53.152;5.846;2023-09-19T06:09:48;14.80;80.80
52787;DHT22;38661;53.152;5.846;2023-09-19T06:12:14;14.80;81.10
52787;DHT22;38661;53.152;5.846;2023-09-19T06:14:43;14.80;81.00
52787;DHT22;38661;53.152;5.846;2023-09-19T06:17:08;14.80;81.00
52787;DHT22;38661;53.152;5.846;2023-09-19T06:19:34;14.80;81.20
52787;DHT22;38661;53.152;5.846;2023-09-19T06:22:00;14.80;81.20
52787;DHT22;38661;53.152;5.846;2023-09-19T06:24:25;14.80;81.30
52787;DHT22;38661;53.152;5.846;2023-09-19T06:26:51;14.80;81.40
52787;DHT22;38661;53.152;5.846;2023-09-19T06:29:18;14.80;81.20
52787;DHT22;38661;53.152;5.846;2023-09-19T06:31:46;14.80;81.10
52787;DHT22;38661;53.152;5.846;2023-09-19T06:34:12;14.90;80.70
52787;DHT22;38661;53.152;5.846;2023-09-19T06:36:41;14.90;80.50
52787;DHT22;38661;53.152;5.846;2023-09-19T06:39:07;15.00;80.00
52787;DHT22;38661;53.152;5.846;2023-09-19T06:41:37;15.00;80.30
52787;DHT22;38661;53.152;5.846;2023-09-19T06:44:04;15.00;80.40
52787;DHT22;38661;53.152;5.846;2023-09-19T06:46:31;15.00;80.70
52787;DHT22;38661;53.152;5.846;2023-09-19T06:49:01;15.00;80.40
52787;DHT22;38661;53.152;5.846;2023-09-19T06:51:28;15.10;80.30
52787;DHT22;38661;53.152;5.846;2023-09-19T06:53:55;15.20;80.10
52787;DHT22;38661;53.152;5.846;2023-09-19T06:56:22;15.20;79.70
52787;DHT22;38661;53.152;5.846;2023-09-19T06:58:50;15.20;79.40
52787;DHT22;38661;53.152;5.846;2023-09-19T07:01:15;15.30;79.60
52787;DHT22;38661;53.152;5.846;2023-09-19T07:03:41;15.40;79.70
52787;DHT22;38661;53.152;5.846;2023-09-19T07:06:07;15.40;79.40
52787;DHT22;38661;53.152;5.846;2023-09-19T07:08:34;15.50;79.20
52787;DHT22;38661;53.152;5.846;2023-09-19T07:11:00;15.50;79.10
52787;DHT22;38661;53.152;5.846;2023-09-19T07:13:25;15.60;78.50
52787;DHT22;38661;53.152;5.846;2023-09-19T07:15:51;15.60;78.40
52787;DHT22;38661;53.152;5.846;2023-09-19T07:18:17;15.60;78.20
52787;DHT22;38661;53.152;5.846;2023-09-19T07:20:44;15.60;78.10
52787;DHT22;38661;53.152;5.846;2023-09-19T07:23:20;15.70;76.60
52787;DHT22;38661;53.152;5.846;2023-09-19T07:25:47;15.60;76.90
52787;DHT22;38661;53.152;5.846;2023-09-19T07:28:14;15.80;76.70
52787;DHT22;38661;53.152;5.846;2023-09-19T07:30:40;15.70;77.30
52787;DHT22;38661;53.152;5.846;2023-09-19T07:33:07;15.70;77.50
52787;DHT22;38661;53.152;5.846;2023-09-19T07:35:37;15.80;77.40
52787;DHT22;38661;53.152;5.846;2023-09-19T07:38:06;15.80;77.90
52787;DHT22;38661;53.152;5.846;2023-09-19T07:40:32;16.00;77.50
52787;DHT22;38661;53.152;5.846;2023-09-19T07:42:58;16.00;77.90
52787;DHT22;38661;53.152;5.846;2023-09-19T07:45:28;16.10;78.10
52787;DHT22;38661;53.152;5.846;2023-09-19T07:47:55;16.20;78.20
52787;DHT22;38661;53.152;5.846;2023-09-19T07:50:21;16.40;77.30
52787;DHT22;38661;53.152;5.846;2023-09-19T07:52:48;16.40;76.50
52787;DHT22;38661;53.152;5.846;2023-09-19T07:55:16;16.50;77.00
52787;DHT22;38661;53.152;5.846;2023-09-19T07:57:45;16.50;76.70
52787;DHT22;38661;53.152;5.846;2023-09-19T08:00:12;16.60;75.90
52787;DHT22;38661;53.152;5.846;2023-09-19T08:02:42;16.50;76.40
52787;DHT22;38661;53.152;5.846;2023-09-19T08:05:09;16.60;75.90
52787;DHT22;38661;53.152;5.846;2023-09-19T08:07:39;16.60;76.60
52787;DHT22;38661;53.152;5.846;2023-09-19T08:10:06;16.60;77.20
52787;DHT22;38661;53.152;5.846;2023-09-19T08:12:41;16.80;76.60
52787;DHT22;38661;53.152;5.846;2023-09-19T08:15:16;16.80;76.70
52787;DHT22;38661;53.152;5.846;2023-09-19T08:17:42;16.90;76.90
52787;DHT22;38661;53.152;5.846;2023-09-19T08:20:09;17.00;76.70
52787;DHT22;38661;53.152;5.846;2023-09-19T08:22:43;16.90;76.80
52787;DHT22;38661;53.152;5.846;2023-09-19T08:25:11;17.00;75.60
52787;DHT22;38661;53.152;5.846;2023-09-19T08:27:37;17.00;75.90
52787;DHT22;38661;53.152;5.846;2023-09-19T08:30:03;17.10;74.70
52787;DHT22;38661;53.152;5.846;2023-09-19T08:32:29;17.20;74.60
52787;DHT22;38661;53.152;5.846;2023-09-19T08:34:55;17.30;74.40
52787;DHT22;38661;53.152;5.846;2023-09-19T08:37:21;17.30;72.60
52787;DHT22;38661;53.152;5.846;2023-09-19T08:39:46;17.30;72.50
52787;DHT22;38661;53.152;5.846;2023-09-19T08:42:12;17.40;72.60
52787;DHT22;38661;53.152;5.846;2023-09-19T08:44:39;17.50;72.20
52787;DHT22;38661;53.152;5.846;2023-09-19T08:47:16;17.50;70.40
52787;DHT22;38661;53.152;5.846;2023-09-19T08:52:32;17.60;68.90
52787;DHT22;38661;53.152;5.846;2023-09-19T08:55:02;17.60;70.00
52787;DHT22;38661;53.152;5.846;2023-09-19T08:57:36;17.70;70.30
52787;DHT22;38661;53.152;5.846;2023-09-19T09:00:07;17.70;70.50
52787;DHT22;38661;53.152;5.846;2023-09-19T09:02:40;17.70;70.00
52787;DHT22;38661;53.152;5.846;2023-09-19T09:05:09;17.70;69.60
52787;DHT22;38661;53.152;5.846;2023-09-19T09:07:40;17.80;70.20
52787;DHT22;38661;53.152;5.846;2023-09-19T09:10:07;17.90;70.60
52787;DHT22;38661;53.152;5.846;2023-09-19T09:12:34;18.00;69.80
52787;DHT22;38661;53.152;5.846;2023-09-19T09:15:02;17.90;69.30
52787;DHT22;38661;53.152;5.846;2023-09-19T09:17:29;18.00;67.90
52787;DHT22;38661;53.152;5.846;2023-09-19T09:19:55;18.00;66.60
52787;DHT22;38661;53.152;5.846;2023-09-19T09:22:21;18.00;68.30
52787;DHT22;38661;53.152;5.846;2023-09-19T09:24:54;18.20;69.50
52787;DHT22;38661;53.152;5.846;2023-09-19T09:27:23;18.30;68.20
52787;DHT22;38661;53.152;5.846;2023-09-19T09:29:50;18.30;68.20
52787;DHT22;38661;53.152;5.846;2023-09-19T09:34:44;18.40;68.60
52787;DHT22;38661;53.152;5.846;2023-09-19T09:37:14;18.40;68.00
52787;DHT22;38661;53.152;5.846;2023-09-19T09:39:52;18.50;69.40
52787;DHT22;38661;53.152;5.846;2023-09-19T09:42:30;18.40;69.60
52787;DHT22;38661;53.152;5.846;2023-09-19T09:45:36;18.40;70.20
52787;DHT22;38661;53.152;5.846;2023-09-19T09:48:02;18.50;69.40
52787;DHT22;38661;53.152;5.846;2023-09-19T09:50:47;18.50;70.40
52787;DHT22;38661;53.152;5.846;2023-09-19T09:53:25;18.50;69.70
52787;DHT22;38661;53.152;5.846;2023-09-19T09:56:08;18.60;70.20
52787;DHT22;38661;53.152;5.846;2023-09-19T09:58:51;18.50;68.70
52787;DHT22;38661;53.152;5.846;2023-09-19T10:01:21;18.50;68.70
52787;DHT22;38661;53.152;5.846;2023-09-19T10:03:57;18.40;68.90
52787;DHT22;38661;53.152;5.846;2023-09-19T10:06:23;18.20;70.90
52787;DHT22;38661;53.152;5.846;2023-09-19T10:09:07;18.20;73.80
52787;DHT22;38661;53.152;5.846;2023-09-19T10:11:43;18.10;76.80
52787;DHT22;38661;53.152;5.846;2023-09-19T10:14:13;18.00;77.70
52787;DHT22;38661;53.152;5.846;2023-09-19T10:16:47;18.00;78.10
52787;DHT22;38661;53.152;5.846;2023-09-19T10:19:20;18.00;77.70
52787;DHT22;38661;53.152;5.846;2023-09-19T10:21:50;18.10;78.20
52787;DHT22;38661;53.152;5.846;2023-09-19T10:24:17;18.00;78.20
52787;DHT22;38661;53.152;5.846;2023-09-19T10:26:45;18.20;78.60
52787;DHT22;38661;53.152;5.846;2023-09-19T10:29:13;18.30;78.10
52787;DHT22;38661;53.152;5.846;2023-09-19T10:31:42;18.20;78.30
52787;DHT22;38661;53.152;5.846;2023-09-19T10:34:14;18.20;78.60
52787;DHT22;38661;53.152;5.846;2023-09-19T10:36:44;18.30;78.70
52787;DHT22;38661;53.152;5.846;2023-09-19T10:39:11;18.30;79.00
52787;DHT22;38661;53.152;5.846;2023-09-19T10:41:39;18.20;78.50
52787;DHT22;38661;53.152;5.846;2023-09-19T10:44:05;18.00;78.90
52787;DHT22;38661;53.152;5.846;2023-09-19T10:46:32;17.90;79.20
52787;DHT22;38661;53.152;5.846;2023-09-19T10:49:02;17.90;79.30
52787;DHT22;38661;53.152;5.846;2023-09-19T10:51:39;17.80;79.40
52787;DHT22;38661;53.152;5.846;2023-09-19T10:54:10;17.70;79.70
52787;DHT22;38661;53.152;5.846;2023-09-19T10:56:43;17.50;80.40
52787;DHT22;38661;53.152;5.846;2023-09-19T10:59:12;17.50;80.20
52787;DHT22;38661;53.152;5.846;2023-09-19T11:01:46;17.60;80.20
52787;DHT22;38661;53.152;5.846;2023-09-19T11:04:29;17.90;80.80
52787;DHT22;38661;53.152;5.846;2023-09-19T11:07:09;18.00;80.20
52787;DHT22;38661;53.152;5.846;2023-09-19T11:09:53;18.40;80.20
52787;DHT22;38661;53.152;5.846;2023-09-19T11:14:54;18.10;79.00
52787;DHT22;38661;53.152;5.846;2023-09-19T11:30:37;17.90;80.60
52787;DHT22;38661;53.152;5.846;2023-09-19T11:33:22;17.90;80.80
52787;DHT22;38661;53.152;5.846;2023-09-19T11:36:02;17.70;81.00
52787;DHT22;38661;53.152;5.846;2023-09-19T11:43:53;17.50;82.80
52787;DHT22;38661;53.152;5.846;2023-09-19T11:46:23;17.40;83.10
52787;DHT22;38661;53.152;5.846;2023-09-19T11:48:49;17.30;83.50
52787;DHT22;38661;53.152;5.846;2023-09-19T11:51:26;17.20;84.90
52787;DHT22;38661;53.152;5.846;2023-09-19T11:53:56;16.90;87.40
52787;DHT22;38661;53.152;5.846;2023-09-19T11:56:25;16.70;88.40
52787;DHT22;38661;53.152;5.846;2023-09-19T11:58:56;16.60;89.50
52787;DHT22;38661;53.152;5.846;2023-09-19T12:01:33;16.50;89.70
52787;DHT22;38661;53.152;5.846;2023-09-19T12:04:01;16.40;91.10
52787;DHT22;38661;53.152;5.846;2023-09-19T12:06:28;16.30;91.20
52787;DHT22;38661;53.152;5.846;2023-09-19T12:09:04;16.40;92.10
52787;DHT22;38661;53.152;5.846;2023-09-19T12:11:41;16.50;92.50
52787;DHT22;38661;53.152;5.846;2023-09-19T12:14:08;16.80;92.60
52787;DHT22;38661;53.152;5.846;2023-09-19T12:16:34;16.90;91.40
52787;DHT22;38661;53.152;5.846;2023-09-19T12:19:22;16.90;90.90
52787;DHT22;38661;53.152;5.846;2023-09-19T12:22:02;17.00;90.00
52787;DHT22;38661;53.152;5.846;2023-09-19T12:24:29;17.10;89.50
52787;DHT22;38661;53.152;5.846;2023-09-19T12:27:01;17.10;89.40
52787;DHT22;38661;53.152;5.846;2023-09-19T12:29:27;17.20;88.80
52787;DHT22;38661;53.152;5.846;2023-09-19T12:31:54;17.40;88.30
52787;DHT22;38661;53.152;5.846;2023-09-19T12:34:32;17.40;87.30
52787;DHT22;38661;53.152;5.846;2023-09-19T12:37:14;17.40;86.60
52787;DHT22;38661;53.152;5.846;2023-09-19T12:39:48;17.40;86.90
52787;DHT22;38661;53.152;5.846;2023-09-19T12:42:22;17.30;86.20
52787;DHT22;38661;53.152;5.846;2023-09-19T12:44:50;17.30;86.00
52787;DHT22;38661;53.152;5.846;2023-09-19T12:47:21;17.30;85.50
52787;DHT22;38661;53.152;5.846;2023-09-19T12:50:12;17.20;86.20
52787;DHT22;38661;53.152;5.846;2023-09-19T12:52:48;17.20;87.50
52787;DHT22;38661;53.152;5.846;2023-09-19T12:55:21;17.00;88.80
52787;DHT22;38661;53.152;5.846;2023-09-19T12:58:08;16.90;89.50
52787;DHT22;38661;53.152;5.846;2023-09-19T13:00:41;16.90;90.10
52787;DHT22;38661;53.152;5.846;2023-09-19T13:03:18;17.00;89.80
52787;DHT22;38661;53.152;5.846;2023-09-19T13:05:57;17.00;89.70
52787;DHT22;38661;53.152;5.846;2023-09-19T13:08:25;17.10;89.30
52787;DHT22;38661;53.152;5.846;2023-09-19T13:11:05;17.10;88.60
52787;DHT22;38661;53.152;5.846;2023-09-19T13:14:14;17.10;88.50
52787;DHT22;38661;53.152;5.846;2023-09-19T13:17:00;17.10;88.30
52787;DHT22;38661;53.152;5.846;2023-09-19T13:19:39;17.20;87.70
52787;DHT22;38661;53.152;5.846;2023-09-19T13:25:17;17.40;87.80
52787;DHT22;38661;53.152;5.846;2023-09-19T13:27:54;17.40;88.10
52787;DHT22;38661;53.152;5.846;2023-09-19T13:30:22;17.40;87.60
52787;DHT22;38661;53.152;5.846;2023-09-19T13:32:51;17.50;87.40
52787;DHT22;38661;53.152;5.846;2023-09-19T13:35:18;17.50;87.10
52787;DHT22;38661;53.152;5.846;2023-09-19T13:37:44;17.60;87.00
52787;DHT22;38661;53.152;5.846;2023-09-19T13:40:14;17.70;86.60
52787;DHT22;38661;53.152;5.846;2023-09-19T13:42:41;17.90;86.30
52787;DHT22;38661;53.152;5.846;2023-09-19T13:45:08;17.70;86.00
52787;DHT22;38661;53.152;5.846;2023-09-19T13:47:38;17.80;86.10
52787;DHT22;38661;53.152;5.846;2023-09-19T13:50:05;17.70;86.50
52787;DHT22;38661;53.152;5.846;2023-09-19T13:52:31;17.70;86.70
52787;DHT22;38661;53.152;5.846;2023-09-19T13:54:58;17.70;86.60
52787;DHT22;38661;53.152;5.846;2023-09-19T13:57:24;17.70;86.80
52787;DHT22;38661;53.152;5.846;2023-09-19T13:59:52;17.80;86.40
52787;DHT22;38661;53.152;5.846;2023-09-19T14:02:20;17.70;87.10
52787;DHT22;38661;53.152;5.846;2023-09-19T14:04:48;17.70;87.40
52787;DHT22;38661;53.152;5.846;2023-09-19T14:07:15;17.70;88.00
52787;DHT22;38661;53.152;5.846;2023-09-19T14:09:41;17.50;88.60
52787;DHT22;38661;53.152;5.846;2023-09-19T14:12:06;17.40;89.50
52787;DHT22;38661;53.152;5.846;2023-09-19T14:14:32;17.30;90.00
52787;DHT22;38661;53.152;5.846;2023-09-19T14:16:58;17.20;90.30
52787;DHT22;38661;53.152;5.846;2023-09-19T14:19:27;17.10;90.30
52787;DHT22;38661;53.152;5.846;2023-09-19T14:21:52;17.10;89.90
52787;DHT22;38661;53.152;5.846;2023-09-19T14:24:21;17.20;89.70
52787;DHT22;38661;53.152;5.846;2023-09-19T14:26:48;17.20;89.40
52787;DHT22;38661;53.152;5.846;2023-09-19T14:29:15;17.30;89.00
52787;DHT22;38661;53.152;5.846;2023-09-19T14:31:41;17.40;88.30
52787;DHT22;38661;53.152;5.846;2023-09-19T14:34:07;17.50;87.90
52787;DHT22;38661;53.152;5.846;2023-09-19T14:36:36;17.50;87.60
52787;DHT22;38661;53.152;5.846;2023-09-19T14:39:04;17.60;87.60
52787;DHT22;38661;53.152;5.846;2023-09-19T14:41:30;17.60;87.50
52787;DHT22;38661;53.152;5.846;2023-09-19T14:43:57;17.60;87.90
52787;DHT22;38661;53.152;5.846;2023-09-19T14:46:23;17.50;88.10
52787;DHT22;38661;53.152;5.846;2023-09-19T14:48:51;17.50;88.20
52787;DHT22;38661;53.152;5.846;2023-09-19T14:51:17;17.50;87.20
52787;DHT22;38661;53.152;5.846;2023-09-19T14:53:45;17.60;87.10
52787;DHT22;38661;53.152;5.846;2023-09-19T14:56:12;17.70;87.00
52787;DHT22;38661;53.152;5.846;2023-09-19T14:58:38;17.70;86.60
52787;DHT22;38661;53.152;5.846;2023-09-19T15:01:12;17.80;86.00
52787;DHT22;38661;53.152;5.846;2023-09-19T15:03:42;17.90;86.20
52787;DHT22;38661;53.152;5.846;2023-09-19T15:06:12;18.00;86.10
52787;DHT22;38661;53.152;5.846;2023-09-19T15:08:43;18.00;85.90
52787;DHT22;38661;53.152;5.846;2023-09-19T15:11:19;18.00;85.90
52787;DHT22;38661;53.152;5.846;2023-09-19T15:13:46;18.00;85.90
52787;DHT22;38661;53.152;5.846;2023-09-19T15:16:12;17.90;86.50
52787;DHT22;38661;53.152;5.846;2023-09-19T15:18:44;17.90;86.60
52787;DHT22;38661;53.152;5.846;2023-09-19T15:21:11;17.80;87.00
52787;DHT22;38661;53.152;5.846;2023-09-19T15:23:38;17.80;86.90
52787;DHT22;38661;53.152;5.846;2023-09-19T15:26:06;17.80;86.90
52787;DHT22;38661;53.152;5.846;2023-09-19T15:28:32;17.90;86.80
52787;DHT22;38661;53.152;5.846;2023-09-19T15:31:00;17.90;86.90
52787;DHT22;38661;53.152;5.846;2023-09-19T15:33:27;17.90;87.00
52787;DHT22;38661;53.152;5.846;2023-09-19T15:36:09;17.90;87.10
52787;DHT22;38661;53.152;5.846;2023-09-19T15:41:22;17.60;88.80
52787;DHT22;38661;53.152;5.846;2023-09-19T15:43:48;17.50;90.10
52787;DHT22;38661;53.152;5.846;2023-09-19T15:46:13;17.50;89.60
52787;DHT22;38661;53.152;5.846;2023-09-19T15:48:41;17.40;90.50
52787;DHT22;38661;53.152;5.846;2023-09-19T15:51:07;17.30;91.60
52787;DHT22;38661;53.152;5.846;2023-09-19T15:53:52;17.20;91.80
52787;DHT22;38661;53.152;5.846;2023-09-19T15:56:19;17.00;92.60
52787;DHT22;38661;53.152;5.846;2023-09-19T15:58:50;17.00;92.90
52787;DHT22;38661;53.152;5.846;2023-09-19T16:01:16;17.00;93.30
52787;DHT22;38661;53.152;5.846;2023-09-19T16:03:44;17.00;92.80
52787;DHT22;38661;53.152;5.846;2023-09-19T16:06:12;16.90;93.90
52787;DHT22;38661;53.152;5.846;2023-09-19T16:08:42;16.90;93.90
52787;DHT22;38661;53.152;5.846;2023-09-19T16:11:09;16.90;93.90
52787;DHT22;38661;53.152;5.846;2023-09-19T16:13:38;16.80;94.40
52787;DHT22;38661;53.152;5.846;2023-09-19T16:16:04;16.70;94.60
52787;DHT22;38661;53.152;5.846;2023-09-19T16:18:30;16.60;94.70
52787;DHT22;38661;53.152;5.846;2023-09-19T16:21:03;16.50;95.00
52787;DHT22;38661;53.152;5.846;2023-09-19T16:23:30;16.50;95.20
52787;DHT22;38661;53.152;5.846;2023-09-19T16:26:07;16.60;95.00
52787;DHT22;38661;53.152;5.846;2023-09-19T16:28:35;16.60;95.10
52787;DHT22;38661;53.152;5.846;2023-09-19T16:31:02;16.60;94.70
52787;DHT22;38661;53.152;5.846;2023-09-19T16:33:31;16.60;95.00